Terminal Aerodrome Forecast
Issued by NWS Twin Cities, MN

Home | Current Version | Previous Version | Graphics & Text | Print | Product List | Glossary On
Versions: 1 2 3 4 5 6 7 8 9 10 11 12 13 14 15 16 17 18 19 20
000
FTUS43 KMPX 262339
TAFSTC
TAF
KSTC 262339Z 2700/2724 22006KT P6SM FEW050 OVC150
     FM270300 VRB03KT P6SM OVC100
     FM271000 VRB03KT 6SM -SHRA OVC060
     FM271900 02005KT 5SM -TSRA BR SCT025 OVC040CB
     FM272300 03006KT P6SM OVC040=

USA.gov is the U.S. government's official web portal to all federal, state and local government web resources and services.